sensor_id;sensor_type;location;lat;lon;timestamp;P1;durP1;ratioP1;P2;durP2;ratioP2
8478;SDS011;4276;49.354;6.804;2024-02-04T00:02:10;2.88;;;2.67;;
8478;SDS011;4276;49.354;6.804;2024-02-04T00:04:40;2.78;;;2.58;;
8478;SDS011;4276;49.354;6.804;2024-02-04T00:07:07;2.67;;;2.50;;
8478;SDS011;4276;49.354;6.804;2024-02-04T00:09:33;2.88;;;2.67;;
8478;SDS011;4276;49.354;6.804;2024-02-04T00:12:02;2.78;;;2.58;;
8478;SDS011;4276;49.354;6.804;2024-02-04T00:14:30;3.10;;;2.90;;
8478;SDS011;4276;49.354;6.804;2024-02-04T00:16:57;3.13;;;2.88;;
8478;SDS011;4276;49.354;6.804;2024-02-04T00:19:23;2.72;;;2.30;;
8478;SDS011;4276;49.354;6.804;2024-02-04T00:21:50;2.50;;;2.35;;
8478;SDS011;4276;49.354;6.804;2024-02-04T00:24:17;2.97;;;2.78;;
8478;SDS011;4276;49.354;6.804;2024-02-04T00:26:45;2.80;;;2.60;;
8478;SDS011;4276;49.354;6.804;2024-02-04T00:29:11;3.15;;;2.95;;
8478;SDS011;4276;49.354;6.804;2024-02-04T00:31:38;2.97;;;2.78;;
8478;SDS011;4276;49.354;6.804;2024-02-04T00:34:04;2.80;;;2.60;;
8478;SDS011;4276;49.354;6.804;2024-02-04T00:36:31;2.85;;;2.65;;
8478;SDS011;4276;49.354;6.804;2024-02-04T00:38:58;2.90;;;2.70;;
8478;SDS011;4276;49.354;6.804;2024-02-04T00:41:24;3.60;;;3.40;;
8478;SDS011;4276;49.354;6.804;2024-02-04T00:43:51;3.53;;;3.10;;
8478;SDS011;4276;49.354;6.804;2024-02-04T00:46:18;3.17;;;2.78;;
8478;SDS011;4276;49.354;6.804;2024-02-04T00:48:45;3.03;;;2.83;;
8478;SDS011;4276;49.354;6.804;2024-02-04T00:51:12;3.58;;;3.22;;
8478;SDS011;4276;49.354;6.804;2024-02-04T00:53:40;3.38;;;3.08;;
8478;SDS011;4276;49.354;6.804;2024-02-04T00:56:07;3.40;;;3.10;;
8478;SDS011;4276;49.354;6.804;2024-02-04T00:58:33;3.22;;;3.03;;
8478;SDS011;4276;49.354;6.804;2024-02-04T01:01:00;3.60;;;3.33;;
8478;SDS011;4276;49.354;6.804;2024-02-04T01:03:26;3.40;;;2.88;;
8478;SDS011;4276;49.354;6.804;2024-02-04T01:05:53;3.55;;;3.30;;
8478;SDS011;4276;49.354;6.804;2024-02-04T01:08:19;3.67;;;3.40;;
8478;SDS011;4276;49.354;6.804;2024-02-04T01:10:46;4.13;;;3.63;;
8478;SDS011;4276;49.354;6.804;2024-02-04T01:13:13;3.40;;;3.10;;
8478;SDS011;4276;49.354;6.804;2024-02-04T01:15:40;3.90;;;3.60;;
8478;SDS011;4276;49.354;6.804;2024-02-04T01:18:07;3.60;;;3.35;;
8478;SDS011;4276;49.354;6.804;2024-02-04T01:20:34;3.83;;;3.53;;
8478;SDS011;4276;49.354;6.804;2024-02-04T01:23:00;3.30;;;3.00;;
8478;SDS011;4276;49.354;6.804;2024-02-04T01:25:27;3.50;;;3.20;;
8478;SDS011;4276;49.354;6.804;2024-02-04T01:27:53;3.70;;;3.45;;
8478;SDS011;4276;49.354;6.804;2024-02-04T01:30:20;3.17;;;2.97;;
8478;SDS011;4276;49.354;6.804;2024-02-04T01:32:46;3.70;;;3.40;;
8478;SDS011;4276;49.354;6.804;2024-02-04T01:35:13;4.20;;;3.35;;
8478;SDS011;4276;49.354;6.804;2024-02-04T01:37:41;3.30;;;2.92;;
8478;SDS011;4276;49.354;6.804;2024-02-04T01:40:09;3.60;;;3.30;;
8478;SDS011;4276;49.354;6.804;2024-02-04T01:42:36;2.90;;;2.70;;
8478;SDS011;4276;49.354;6.804;2024-02-04T01:45:03;3.38;;;3.08;;
8478;SDS011;4276;49.354;6.804;2024-02-04T01:47:30;3.10;;;2.90;;
8478;SDS011;4276;49.354;6.804;2024-02-04T01:49:56;3.15;;;2.95;;
8478;SDS011;4276;49.354;6.804;2024-02-04T01:52:23;3.03;;;2.83;;
8478;SDS011;4276;49.354;6.804;2024-02-04T01:54:49;3.17;;;2.97;;
8478;SDS011;4276;49.354;6.804;2024-02-04T01:57:17;2.70;;;2.50;;
8478;SDS011;4276;49.354;6.804;2024-02-04T01:59:43;3.15;;;2.95;;
8478;SDS011;4276;49.354;6.804;2024-02-04T02:02:10;2.72;;;2.55;;
8478;SDS011;4276;49.354;6.804;2024-02-04T02:04:37;2.80;;;2.60;;
8478;SDS011;4276;49.354;6.804;2024-02-04T02:07:04;2.63;;;2.42;;
8478;SDS011;4276;49.354;6.804;2024-02-04T02:09:34;2.40;;;2.30;;
8478;SDS011;4276;49.354;6.804;2024-02-04T02:12:06;2.67;;;2.47;;
8478;SDS011;4276;49.354;6.804;2024-02-04T02:14:37;2.72;;;2.53;;
8478;SDS011;4276;49.354;6.804;2024-02-04T02:17:08;2.70;;;2.50;;
8478;SDS011;4276;49.354;6.804;2024-02-04T02:23:21;2.88;;;2.67;;
8478;SDS011;4276;49.354;6.804;2024-02-04T02:25:27;3.05;;;2.85;;
8478;SDS011;4276;49.354;6.804;2024-02-04T02:27:54;2.38;;;2.28;;
8478;SDS011;4276;49.354;6.804;2024-02-04T02:30:20;2.17;;;2.08;;
8478;SDS011;4276;49.354;6.804;2024-02-04T02:32:47;2.40;;;2.05;;
8478;SDS011;4276;49.354;6.804;2024-02-04T02:35:15;2.10;;;2.00;;
8478;SDS011;4276;49.354;6.804;2024-02-04T02:40:54;2.13;;;2.03;;
8478;SDS011;4276;49.354;6.804;2024-02-04T02:43:23;2.03;;;1.92;;
8478;SDS011;4276;49.354;6.804;2024-02-04T02:45:50;2.10;;;2.00;;
8478;SDS011;4276;49.354;6.804;2024-02-04T02:48:17;2.20;;;2.10;;
8478;SDS011;4276;49.354;6.804;2024-02-04T02:50:45;2.38;;;2.00;;
8478;SDS011;4276;49.354;6.804;2024-02-04T02:53:11;2.22;;;2.13;;
8478;SDS011;4276;49.354;6.804;2024-02-04T02:55:38;2.58;;;2.47;;
8478;SDS011;4276;49.354;6.804;2024-02-04T02:58:07;2.28;;;2.17;;
8478;SDS011;4276;49.354;6.804;2024-02-04T03:00:33;2.58;;;2.38;;
8478;SDS011;4276;49.354;6.804;2024-02-04T03:03:00;2.15;;;2.05;;
8478;SDS011;4276;49.354;6.804;2024-02-04T03:05:27;2.90;;;2.70;;
8478;SDS011;4276;49.354;6.804;2024-02-04T03:07:53;2.55;;;2.35;;
8478;SDS011;4276;49.354;6.804;2024-02-04T03:10:20;2.80;;;2.60;;
8478;SDS011;4276;49.354;6.804;2024-02-04T03:12:46;2.90;;;2.70;;
8478;SDS011;4276;49.354;6.804;2024-02-04T03:15:13;3.22;;;2.97;;
8478;SDS011;4276;49.354;6.804;2024-02-04T03:17:39;3.90;;;3.60;;
8478;SDS011;4276;49.354;6.804;2024-02-04T03:20:06;2.88;;;2.72;;
8478;SDS011;4276;49.354;6.804;2024-02-04T03:22:33;2.63;;;2.47;;
8478;SDS011;4276;49.354;6.804;2024-02-04T03:25:00;2.80;;;2.70;;
8478;SDS011;4276;49.354;6.804;2024-02-04T03:27:27;2.80;;;2.70;;
8478;SDS011;4276;49.354;6.804;2024-02-04T03:29:53;3.00;;;2.80;;
8478;SDS011;4276;49.354;6.804;2024-02-04T03:32:19;2.78;;;2.58;;
8478;SDS011;4276;49.354;6.804;2024-02-04T03:34:46;2.75;;;2.65;;
8478;SDS011;4276;49.354;6.804;2024-02-04T03:37:13;2.78;;;2.67;;
8478;SDS011;4276;49.354;6.804;2024-02-04T03:39:39;3.00;;;2.80;;
8478;SDS011;4276;49.354;6.804;2024-02-04T03:42:06;3.28;;;2.97;;
8478;SDS011;4276;49.354;6.804;2024-02-04T03:44:32;3.15;;;2.95;;
8478;SDS011;4276;49.354;6.804;2024-02-04T03:46:59;3.58;;;3.28;;
8478;SDS011;4276;49.354;6.804;2024-02-04T03:49:25;3.38;;;3.13;;
8478;SDS011;4276;49.354;6.804;2024-02-04T03:51:52;3.10;;;2.90;;
8478;SDS011;4276;49.354;6.804;2024-02-04T03:54:18;3.50;;;3.30;;
8478;SDS011;4276;49.354;6.804;2024-02-04T03:56:45;3.40;;;3.20;;
8478;SDS011;4276;49.354;6.804;2024-02-04T03:59:12;3.50;;;3.30;;
8478;SDS011;4276;49.354;6.804;2024-02-04T04:01:39;3.80;;;3.50;;
8478;SDS011;4276;49.354;6.804;2024-02-04T04:04:05;3.95;;;3.65;;
8478;SDS011;4276;49.354;6.804;2024-02-04T04:06:32;3.90;;;3.60;;
8478;SDS011;4276;49.354;6.804;2024-02-04T04:08:59;3.78;;;3.47;;
8478;SDS011;4276;49.354;6.804;2024-02-04T04:11:27;4.10;;;3.80;;
8478;SDS011;4276;49.354;6.804;2024-02-04T04:13:54;4.10;;;3.80;;
8478;SDS011;4276;49.354;6.804;2024-02-04T04:16:21;3.88;;;3.60;;
8478;SDS011;4276;49.354;6.804;2024-02-04T04:18:48;4.32;;;4.03;;
8478;SDS011;4276;49.354;6.804;2024-02-04T04:21:16;4.35;;;4.05;;
8478;SDS011;4276;49.354;6.804;2024-02-04T04:23:42;4.53;;;4.22;;
8478;SDS011;4276;49.354;6.804;2024-02-04T04:26:09;4.15;;;3.83;;
8478;SDS011;4276;49.354;6.804;2024-02-04T04:28:35;4.35;;;3.97;;
8478;SDS011;4276;49.354;6.804;2024-02-04T04:31:02;4.53;;;4.13;;
8478;SDS011;4276;49.354;6.804;2024-02-04T04:33:29;4.72;;;4.35;;
8478;SDS011;4276;49.354;6.804;2024-02-04T04:35:56;5.18;;;4.15;;
8478;SDS011;4276;49.354;6.804;2024-02-04T04:38:23;4.40;;;4.10;;
8478;SDS011;4276;49.354;6.804;2024-02-04T04:40:49;4.90;;;4.50;;
8478;SDS011;4276;49.354;6.804;2024-02-04T04:43:16;4.43;;;4.05;;
8478;SDS011;4276;49.354;6.804;2024-02-04T04:45:42;4.97;;;4.57;;
8478;SDS011;4276;49.354;6.804;2024-02-04T04:48:09;4.65;;;4.32;;
8478;SDS011;4276;49.354;6.804;2024-02-04T04:50:36;4.35;;;3.95;;
8478;SDS011;4276;49.354;6.804;2024-02-04T04:53:02;4.22;;;3.92;;
8478;SDS011;4276;49.354;6.804;2024-02-04T04:55:29;4.72;;;4.32;;
8478;SDS011;4276;49.354;6.804;2024-02-04T04:57:56;5.03;;;4.68;;
8478;SDS011;4276;49.354;6.804;2024-02-04T05:00:22;4.35;;;3.95;;
8478;SDS011;4276;49.354;6.804;2024-02-04T05:02:49;4.32;;;4.03;;
8478;SDS011;4276;49.354;6.804;2024-02-04T05:05:16;4.35;;;3.88;;
8478;SDS011;4276;49.354;6.804;2024-02-04T05:07:42;4.40;;;4.10;;
8478;SDS011;4276;49.354;6.804;2024-02-04T05:10:09;4.97;;;4.30;;
8478;SDS011;4276;49.354;6.804;2024-02-04T05:12:36;3.85;;;3.53;;
8478;SDS011;4276;49.354;6.804;2024-02-04T05:15:03;4.07;;;3.78;;
8478;SDS011;4276;49.354;6.804;2024-02-04T05:17:31;4.20;;;3.90;;
8478;SDS011;4276;49.354;6.804;2024-02-04T05:19:58;4.15;;;3.85;;
8478;SDS011;4276;49.354;6.804;2024-02-04T05:22:25;4.65;;;4.25;;
8478;SDS011;4276;49.354;6.804;2024-02-04T05:24:51;4.35;;;4.05;;
8478;SDS011;4276;49.354;6.804;2024-02-04T05:27:18;4.68;;;4.00;;
8478;SDS011;4276;49.354;6.804;2024-02-04T05:29:44;4.00;;;3.70;;
8478;SDS011;4276;49.354;6.804;2024-02-04T05:32:11;4.18;;;3.88;;
8478;SDS011;4276;49.354;6.804;2024-02-04T05:34:38;4.22;;;3.85;;
8478;SDS011;4276;49.354;6.804;2024-02-04T05:37:04;4.20;;;3.90;;
8478;SDS011;4276;49.354;6.804;2024-02-04T05:39:31;4.13;;;3.90;;
8478;SDS011;4276;49.354;6.804;2024-02-04T05:41:58;4.25;;;3.88;;
8478;SDS011;4276;49.354;6.804;2024-02-04T05:44:24;3.88;;;3.58;;
8478;SDS011;4276;49.354;6.804;2024-02-04T05:46:51;4.03;;;3.83;;
8478;SDS011;4276;49.354;6.804;2024-02-04T05:49:17;3.90;;;3.70;;
8478;SDS011;4276;49.354;6.804;2024-02-04T05:51:44;4.32;;;4.03;;
8478;SDS011;4276;49.354;6.804;2024-02-04T05:54:12;3.92;;;3.63;;
8478;SDS011;4276;49.354;6.804;2024-02-04T05:56:38;3.92;;;3.67;;
8478;SDS011;4276;49.354;6.804;2024-02-04T05:59:05;4.20;;;3.90;;
8478;SDS011;4276;49.354;6.804;2024-02-04T06:01:31;3.90;;;3.65;;
8478;SDS011;4276;49.354;6.804;2024-02-04T06:03:59;4.20;;;3.90;;
8478;SDS011;4276;49.354;6.804;2024-02-04T06:06:25;3.97;;;3.63;;
8478;SDS011;4276;49.354;6.804;2024-02-04T06:08:52;4.10;;;3.80;;
8478;SDS011;4276;49.354;6.804;2024-02-04T06:11:19;4.15;;;3.85;;
8478;SDS011;4276;49.354;6.804;2024-02-04T06:13:45;3.70;;;3.50;;
8478;SDS011;4276;49.354;6.804;2024-02-04T06:16:12;3.70;;;3.50;;
8478;SDS011;4276;49.354;6.804;2024-02-04T06:18:39;5.03;;;4.03;;
8478;SDS011;4276;49.354;6.804;2024-02-04T06:21:06;4.00;;;3.70;;
8478;SDS011;4276;49.354;6.804;2024-02-04T06:23:33;3.60;;;3.33;;
8478;SDS011;4276;49.354;6.804;2024-02-04T06:26:00;3.65;;;3.45;;
8478;SDS011;4276;49.354;6.804;2024-02-04T06:28:27;3.65;;;3.35;;
8478;SDS011;4276;49.354;6.804;2024-02-04T06:30:54;3.50;;;3.30;;
8478;SDS011;4276;49.354;6.804;2024-02-04T06:33:21;4.07;;;3.80;;
8478;SDS011;4276;49.354;6.804;2024-02-04T06:35:49;4.00;;;3.70;;
8478;SDS011;4276;49.354;6.804;2024-02-04T06:38:17;3.50;;;3.30;;
8478;SDS011;4276;49.354;6.804;2024-02-04T06:40:43;3.72;;;3.53;;
8478;SDS011;4276;49.354;6.804;2024-02-04T06:43:10;3.60;;;3.33;;
8478;SDS011;4276;49.354;6.804;2024-02-04T06:45:37;3.80;;;3.50;;
8478;SDS011;4276;49.354;6.804;2024-02-04T06:48:04;3.95;;;3.63;;
8478;SDS011;4276;49.354;6.804;2024-02-04T06:50:31;3.92;;;3.65;;
8478;SDS011;4276;49.354;6.804;2024-02-04T06:52:57;3.42;;;3.22;;
8478;SDS011;4276;49.354;6.804;2024-02-04T06:55:24;3.75;;;3.55;;
8478;SDS011;4276;49.354;6.804;2024-02-04T06:57:51;3.38;;;3.17;;
8478;SDS011;4276;49.354;6.804;2024-02-04T07:00:18;3.70;;;3.47;;
8478;SDS011;4276;49.354;6.804;2024-02-04T07:02:45;3.97;;;3.67;;
8478;SDS011;4276;49.354;6.804;2024-02-04T07:05:12;3.90;;;3.60;;
8478;SDS011;4276;49.354;6.804;2024-02-04T07:07:38;3.50;;;3.30;;
8478;SDS011;4276;49.354;6.804;2024-02-04T07:10:05;3.60;;;3.30;;
8478;SDS011;4276;49.354;6.804;2024-02-04T07:12:32;3.50;;;3.20;;
8478;SDS011;4276;49.354;6.804;2024-02-04T07:14:59;3.17;;;2.97;;
8478;SDS011;4276;49.354;6.804;2024-02-04T07:17:25;3.90;;;3.60;;
8478;SDS011;4276;49.354;6.804;2024-02-04T07:19:53;5.00;;;4.60;;
8478;SDS011;4276;49.354;6.804;2024-02-04T07:22:19;4.07;;;3.78;;
8478;SDS011;4276;49.354;6.804;2024-02-04T07:24:46;4.07;;;3.47;;
8478;SDS011;4276;49.354;6.804;2024-02-04T07:27:12;3.60;;;3.38;;
8478;SDS011;4276;49.354;6.804;2024-02-04T07:29:39;4.57;;;4.10;;
8478;SDS011;4276;49.354;6.804;2024-02-04T07:32:06;4.35;;;3.95;;
8478;SDS011;4276;49.354;6.804;2024-02-04T07:34:32;4.05;;;3.75;;
8478;SDS011;4276;49.354;6.804;2024-02-04T07:36:59;4.18;;;3.78;;
8478;SDS011;4276;49.354;6.804;2024-02-04T07:39:26;4.60;;;4.20;;
8478;SDS011;4276;49.354;6.804;2024-02-04T07:41:52;4.07;;;3.72;;
8478;SDS011;4276;49.354;6.804;2024-02-04T07:44:20;4.38;;;4.07;;
8478;SDS011;4276;49.354;6.804;2024-02-04T07:46:46;5.25;;;4.75;;
8478;SDS011;4276;49.354;6.804;2024-02-04T07:49:13;4.35;;;4.00;;
8478;SDS011;4276;49.354;6.804;2024-02-04T07:51:40;4.28;;;3.97;;
8478;SDS011;4276;49.354;6.804;2024-02-04T07:54:06;5.10;;;4.70;;
8478;SDS011;4276;49.354;6.804;2024-02-04T07:56:33;4.80;;;4.45;;
8478;SDS011;4276;49.354;6.804;2024-02-04T07:58:59;4.28;;;3.88;;
8478;SDS011;4276;49.354;6.804;2024-02-04T08:01:26;4.38;;;3.97;;
8478;SDS011;4276;49.354;6.804;2024-02-04T08:03:53;3.90;;;3.60;;
8478;SDS011;4276;49.354;6.804;2024-02-04T08:06:20;3.95;;;3.65;;
8478;SDS011;4276;49.354;6.804;2024-02-04T08:08:47;3.92;;;3.63;;
8478;SDS011;4276;49.354;6.804;2024-02-04T08:11:17;3.97;;;3.53;;
8478;SDS011;4276;49.354;6.804;2024-02-04T08:13:44;3.17;;;2.97;;
8478;SDS011;4276;49.354;6.804;2024-02-04T08:16:11;3.30;;;3.10;;
8478;SDS011;4276;49.354;6.804;2024-02-04T08:18:38;3.83;;;3.53;;
8478;SDS011;4276;49.354;6.804;2024-02-04T08:21:05;3.63;;;3.42;;
8478;SDS011;4276;49.354;6.804;2024-02-04T08:23:32;2.97;;;2.78;;
8478;SDS011;4276;49.354;6.804;2024-02-04T08:26:02;3.53;;;3.22;;
8478;SDS011;4276;49.354;6.804;2024-02-04T08:28:29;2.83;;;2.72;;
8478;SDS011;4276;49.354;6.804;2024-02-04T08:30:56;2.95;;;2.75;;
8478;SDS011;4276;49.354;6.804;2024-02-04T08:33:23;3.50;;;3.20;;
8478;SDS011;4276;49.354;6.804;2024-02-04T08:35:50;3.58;;;3.38;;
8478;SDS011;4276;49.354;6.804;2024-02-04T08:38:17;3.70;;;3.33;;
8478;SDS011;4276;49.354;6.804;2024-02-04T08:40:43;3.28;;;3.03;;
8478;SDS011;4276;49.354;6.804;2024-02-04T08:43:10;3.25;;;2.95;;
8478;SDS011;4276;49.354;6.804;2024-02-04T08:45:36;2.75;;;2.55;;
8478;SDS011;4276;49.354;6.804;2024-02-04T08:48:03;3.50;;;2.75;;
8478;SDS011;4276;49.354;6.804;2024-02-04T08:50:30;2.80;;;2.60;;
8478;SDS011;4276;49.354;6.804;2024-02-04T08:52:57;2.92;;;2.72;;
8478;SDS011;4276;49.354;6.804;2024-02-04T08:55:24;3.17;;;2.97;;
8478;SDS011;4276;49.354;6.804;2024-02-04T08:57:50;3.20;;;2.90;;
8478;SDS011;4276;49.354;6.804;2024-02-04T09:00:19;2.65;;;2.45;;
8478;SDS011;4276;49.354;6.804;2024-02-04T09:02:46;3.50;;;3.30;;
8478;SDS011;4276;49.354;6.804;2024-02-04T09:05:13;4.35;;;3.83;;
8478;SDS011;4276;49.354;6.804;2024-02-04T09:07:39;3.78;;;3.47;;
8478;SDS011;4276;49.354;6.804;2024-02-04T09:10:06;3.58;;;3.28;;
8478;SDS011;4276;49.354;6.804;2024-02-04T09:12:34;3.65;;;3.35;;
8478;SDS011;4276;49.354;6.804;2024-02-04T09:15:01;6.35;;;5.65;;
8478;SDS011;4276;49.354;6.804;2024-02-04T09:17:28;3.50;;;3.22;;
8478;SDS011;4276;49.354;6.804;2024-02-04T09:19:54;3.45;;;3.08;;
8478;SDS011;4276;49.354;6.804;2024-02-04T09:22:21;4.05;;;3.70;;
8478;SDS011;4276;49.354;6.804;2024-02-04T09:24:48;3.90;;;3.60;;
8478;SDS011;4276;49.354;6.804;2024-02-04T09:27:14;3.55;;;3.35;;
8478;SDS011;4276;49.354;6.804;2024-02-04T09:29:41;5.78;;;4.35;;
8478;SDS011;4276;49.354;6.804;2024-02-04T09:32:07;6.30;;;4.40;;
8478;SDS011;4276;49.354;6.804;2024-02-04T09:34:34;4.53;;;4.13;;
8478;SDS011;4276;49.354;6.804;2024-02-04T09:37:01;5.50;;;4.93;;
8478;SDS011;4276;49.354;6.804;2024-02-04T09:39:29;4.60;;;4.18;;
8478;SDS011;4276;49.354;6.804;2024-02-04T09:41:56;3.40;;;3.10;;
8478;SDS011;4276;49.354;6.804;2024-02-04T09:44:23;3.83;;;3.35;;
8478;SDS011;4276;49.354;6.804;2024-02-04T09:46:50;4.55;;;4.15;;
8478;SDS011;4276;49.354;6.804;2024-02-04T09:49:18;4.57;;;3.55;;
8478;SDS011;4276;49.354;6.804;2024-02-04T09:51:45;4.25;;;3.20;;
8478;SDS011;4276;49.354;6.804;2024-02-04T09:54:12;3.67;;;3.38;;
8478;SDS011;4276;49.354;6.804;2024-02-04T09:56:40;3.72;;;3.42;;
8478;SDS011;4276;49.354;6.804;2024-02-04T09:59:08;3.10;;;2.80;;
8478;SDS011;4276;49.354;6.804;2024-02-04T10:01:35;3.47;;;3.17;;
8478;SDS011;4276;49.354;6.804;2024-02-04T10:04:02;3.92;;;3.20;;
8478;SDS011;4276;49.354;6.804;2024-02-04T10:06:30;4.30;;;2.85;;
8478;SDS011;4276;49.354;6.804;2024-02-04T10:08:57;2.80;;;2.60;;
8478;SDS011;4276;49.354;6.804;2024-02-04T10:11:24;3.03;;;2.70;;
8478;SDS011;4276;49.354;6.804;2024-02-04T10:13:51;4.75;;;3.08;;
8478;SDS011;4276;49.354;6.804;2024-02-04T10:16:17;2.65;;;2.40;;
8478;SDS011;4276;49.354;6.804;2024-02-04T10:18:44;2.63;;;2.42;;
8478;SDS011;4276;49.354;6.804;2024-02-04T10:21:18;3.60;;;3.28;;
8478;SDS011;4276;49.354;6.804;2024-02-04T10:23:46;2.97;;;2.78;;
8478;SDS011;4276;49.354;6.804;2024-02-04T10:26:13;3.42;;;2.97;;
8478;SDS011;4276;49.354;6.804;2024-02-04T10:28:40;4.35;;;3.60;;
8478;SDS011;4276;49.354;6.804;2024-02-04T10:31:09;3.63;;;2.83;;
8478;SDS011;4276;49.354;6.804;2024-02-04T10:33:38;5.45;;;4.95;;
8478;SDS011;4276;49.354;6.804;2024-02-04T10:36:05;5.78;;;5.28;;
8478;SDS011;4276;49.354;6.804;2024-02-04T10:38:32;3.58;;;3.28;;
8478;SDS011;4276;49.354;6.804;2024-02-04T10:40:59;3.35;;;3.05;;
8478;SDS011;4276;49.354;6.804;2024-02-04T10:43:33;2.83;;;2.63;;
8478;SDS011;4276;49.354;6.804;2024-02-04T10:46:12;3.75;;;3.45;;
8478;SDS011;4276;49.354;6.804;2024-02-04T10:48:41;3.70;;;3.40;;
8478;SDS011;4276;49.354;6.804;2024-02-04T10:51:13;2.80;;;2.60;;
8478;SDS011;4276;49.354;6.804;2024-02-04T10:53:41;2.45;;;2.35;;
8478;SDS011;4276;49.354;6.804;2024-02-04T10:56:18;2.30;;;2.20;;
8478;SDS011;4276;49.354;6.804;2024-02-04T10:58:46;3.33;;;3.13;;
8478;SDS011;4276;49.354;6.804;2024-02-04T11:01:14;4.80;;;4.28;;
8478;SDS011;4276;49.354;6.804;2024-02-04T11:03:40;2.75;;;2.55;;
8478;SDS011;4276;49.354;6.804;2024-02-04T11:06:07;5.20;;;4.80;;
8478;SDS011;4276;49.354;6.804;2024-02-04T11:08:34;3.25;;;2.97;;
8478;SDS011;4276;49.354;6.804;2024-02-04T11:11:01;2.55;;;2.40;;
8478;SDS011;4276;49.354;6.804;2024-02-04T11:13:27;2.97;;;2.17;;
8478;SDS011;4276;49.354;6.804;2024-02-04T11:15:55;2.63;;;2.42;;
8478;SDS011;4276;49.354;6.804;2024-02-04T11:18:42;2.40;;;2.30;;
8478;SDS011;4276;49.354;6.804;2024-02-04T11:24:03;2.08;;;1.98;;
8478;SDS011;4276;49.354;6.804;2024-02-04T11:26:42;2.63;;;2.42;;
8478;SDS011;4276;49.354;6.804;2024-02-04T11:29:09;2.58;;;2.38;;
8478;SDS011;4276;49.354;6.804;2024-02-04T11:31:38;2.67;;;2.10;;
8478;SDS011;4276;49.354;6.804;2024-02-04T11:34:06;2.72;;;2.50;;
8478;SDS011;4276;49.354;6.804;2024-02-04T11:36:37;4.38;;;3.97;;
8478;SDS011;4276;49.354;6.804;2024-02-04T11:39:13;4.10;;;3.70;;
8478;SDS011;4276;49.354;6.804;2024-02-04T11:41:44;4.30;;;3.95;;
8478;SDS011;4276;49.354;6.804;2024-02-04T11:44:19;4.10;;;3.80;;
8478;SDS011;4276;49.354;6.804;2024-02-04T11:46:48;3.75;;;3.45;;
8478;SDS011;4276;49.354;6.804;2024-02-04T11:49:15;2.40;;;2.30;;
8478;SDS011;4276;49.354;6.804;2024-02-04T11:51:47;2.30;;;2.20;;
8478;SDS011;4276;49.354;6.804;2024-02-04T11:54:17;2.60;;;2.30;;
8478;SDS011;4276;49.354;6.804;2024-02-04T11:56:49;2.90;;;2.70;;
8478;SDS011;4276;49.354;6.804;2024-02-04T11:59:20;3.17;;;2.90;;
8478;SDS011;4276;49.354;6.804;2024-02-04T12:01:53;5.55;;;4.30;;
8478;SDS011;4276;49.354;6.804;2024-02-04T12:04:21;2.92;;;2.60;;
8478;SDS011;4276;49.354;6.804;2024-02-04T12:06:48;3.25;;;2.92;;
8478;SDS011;4276;49.354;6.804;2024-02-04T12:09:17;2.65;;;2.45;;
8478;SDS011;4276;49.354;6.804;2024-02-04T12:11:49;2.65;;;2.45;;
8478;SDS011;4276;49.354;6.804;2024-02-04T12:14:18;6.05;;;4.38;;
8478;SDS011;4276;49.354;6.804;2024-02-04T12:16:45;5.00;;;4.60;;
8478;SDS011;4276;49.354;6.804;2024-02-04T12:19:11;7.57;;;6.90;;
8478;SDS011;4276;49.354;6.804;2024-02-04T12:21:38;2.55;;;2.35;;
8478;SDS011;4276;49.354;6.804;2024-02-04T12:24:05;5.25;;;4.85;;
8478;SDS011;4276;49.354;6.804;2024-02-04T12:26:31;1.73;;;1.63;;
8478;SDS011;4276;49.354;6.804;2024-02-04T12:28:58;4.38;;;4.07;;
8478;SDS011;4276;49.354;6.804;2024-02-04T12:31:25;1.80;;;1.70;;
8478;SDS011;4276;49.354;6.804;2024-02-04T12:33:56;1.83;;;1.73;;
8478;SDS011;4276;49.354;6.804;2024-02-04T12:36:28;1.92;;;1.83;;
8478;SDS011;4276;49.354;6.804;2024-02-04T12:38:56;2.33;;;2.22;;
8478;SDS011;4276;49.354;6.804;2024-02-04T12:41:23;1.70;;;1.60;;
8478;SDS011;4276;49.354;6.804;2024-02-04T12:43:54;3.05;;;2.90;;
8478;SDS011;4276;49.354;6.804;2024-02-04T12:46:22;2.03;;;1.92;;
8478;SDS011;4276;49.354;6.804;2024-02-04T12:48:52;1.42;;;1.33;;
8478;SDS011;4276;49.354;6.804;2024-02-04T12:51:27;2.10;;;2.00;;
8478;SDS011;4276;49.354;6.804;2024-02-04T12:54:08;2.17;;;2.08;;
8478;SDS011;4276;49.354;6.804;2024-02-04T12:56:51;1.73;;;1.63;;
8478;SDS011;4276;49.354;6.804;2024-02-04T13:02:01;1.30;;;1.30;;
8478;SDS011;4276;49.354;6.804;2024-02-04T13:04:41;1.40;;;1.30;;
8478;SDS011;4276;49.354;6.804;2024-02-04T13:07:10;1.42;;;1.42;;
8478;SDS011;4276;49.354;6.804;2024-02-04T13:09:39;1.33;;;1.23;;
8478;SDS011;4276;49.354;6.804;2024-02-04T13:12:07;1.30;;;1.30;;
8478;SDS011;4276;49.354;6.804;2024-02-04T13:14:38;1.08;;;1.08;;
8478;SDS011;4276;49.354;6.804;2024-02-04T13:17:05;1.00;;;0.90;;
8478;SDS011;4276;49.354;6.804;2024-02-04T13:19:32;1.00;;;1.00;;
8478;SDS011;4276;49.354;6.804;2024-02-04T13:22:00;1.10;;;1.10;;
8478;SDS011;4276;49.354;6.804;2024-02-04T13:24:27;1.30;;;1.05;;
8478;SDS011;4276;49.354;6.804;2024-02-04T13:26:53;1.05;;;1.00;;
8478;SDS011;4276;49.354;6.804;2024-02-04T13:29:20;1.55;;;1.40;;
8478;SDS011;4276;49.354;6.804;2024-02-04T13:31:46;1.13;;;1.13;;
8478;SDS011;4276;49.354;6.804;2024-02-04T13:34:13;1.05;;;1.05;;
8478;SDS011;4276;49.354;6.804;2024-02-04T13:36:43;1.30;;;1.20;;
8478;SDS011;4276;49.354;6.804;2024-02-04T13:39:10;1.00;;;1.00;;
8478;SDS011;4276;49.354;6.804;2024-02-04T13:41:39;1.30;;;1.20;;
8478;SDS011;4276;49.354;6.804;2024-02-04T13:44:06;1.40;;;1.30;;
8478;SDS011;4276;49.354;6.804;2024-02-04T13:46:34;1.05;;;1.05;;
8478;SDS011;4276;49.354;6.804;2024-02-04T13:49:01;0.75;;;0.75;;
8478;SDS011;4276;49.354;6.804;2024-02-04T13:51:29;1.10;;;1.00;;
8478;SDS011;4276;49.354;6.804;2024-02-04T13:54:09;0.90;;;0.90;;
8478;SDS011;4276;49.354;6.804;2024-02-04T13:56:37;1.30;;;1.20;;
8478;SDS011;4276;49.354;6.804;2024-02-04T13:59:04;1.30;;;1.30;;
8478;SDS011;4276;49.354;6.804;2024-02-04T14:01:31;0.80;;;0.80;;
8478;SDS011;4276;49.354;6.804;2024-02-04T14:03:58;1.10;;;1.10;;
8478;SDS011;4276;49.354;6.804;2024-02-04T14:06:24;1.10;;;1.10;;
8478;SDS011;4276;49.354;6.804;2024-02-04T14:08:51;1.10;;;1.10;;
8478;SDS011;4276;49.354;6.804;2024-02-04T14:11:17;0.70;;;0.70;;
8478;SDS011;4276;49.354;6.804;2024-02-04T14:13:44;0.90;;;0.90;;
8478;SDS011;4276;49.354;6.804;2024-02-04T14:16:11;1.10;;;1.10;;
8478;SDS011;4276;49.354;6.804;2024-02-04T14:18:38;1.58;;;1.48;;
8478;SDS011;4276;49.354;6.804;2024-02-04T14:21:06;1.17;;;1.17;;
8478;SDS011;4276;49.354;6.804;2024-02-04T14:23:33;1.20;;;1.20;;
8478;SDS011;4276;49.354;6.804;2024-02-04T14:26:00;1.40;;;1.30;;
8478;SDS011;4276;49.354;6.804;2024-02-04T14:28:27;1.80;;;1.70;;
8478;SDS011;4276;49.354;6.804;2024-02-04T14:30:54;1.50;;;1.40;;
8478;SDS011;4276;49.354;6.804;2024-02-04T14:33:24;0.90;;;0.90;;
8478;SDS011;4276;49.354;6.804;2024-02-04T14:35:50;1.08;;;1.08;;
8478;SDS011;4276;49.354;6.804;2024-02-04T14:38:17;0.98;;;0.80;;
8478;SDS011;4276;49.354;6.804;2024-02-04T14:40:43;0.90;;;0.90;;
8478;SDS011;4276;49.354;6.804;2024-02-04T14:43:09;0.82;;;0.82;;
8478;SDS011;4276;49.354;6.804;2024-02-04T14:45:38;0.93;;;0.93;;
8478;SDS011;4276;49.354;6.804;2024-02-04T14:48:05;0.80;;;0.80;;
8478;SDS011;4276;49.354;6.804;2024-02-04T14:50:31;0.75;;;0.75;;
8478;SDS011;4276;49.354;6.804;2024-02-04T14:52:58;0.80;;;0.80;;
8478;SDS011;4276;49.354;6.804;2024-02-04T14:55:24;0.90;;;0.90;;
8478;SDS011;4276;49.354;6.804;2024-02-04T14:57:51;1.00;;;1.00;;
8478;SDS011;4276;49.354;6.804;2024-02-04T15:00:18;1.00;;;1.00;;
8478;SDS011;4276;49.354;6.804;2024-02-04T15:02:47;1.15;;;0.80;;
8478;SDS011;4276;49.354;6.804;2024-02-04T15:05:13;1.00;;;0.90;;
8478;SDS011;4276;49.354;6.804;2024-02-04T15:07:41;1.20;;;1.20;;
8478;SDS011;4276;49.354;6.804;2024-02-04T15:10:11;1.50;;;1.40;;
8478;SDS011;4276;49.354;6.804;2024-02-04T15:12:39;1.67;;;1.58;;
8478;SDS011;4276;49.354;6.804;2024-02-04T15:15:06;1.70;;;1.60;;
8478;SDS011;4276;49.354;6.804;2024-02-04T15:17:34;2.10;;;2.00;;
8478;SDS011;4276;49.354;6.804;2024-02-04T15:20:01;1.60;;;1.50;;
8478;SDS011;4276;49.354;6.804;2024-02-04T15:22:28;2.97;;;2.67;;
8478;SDS011;4276;49.354;6.804;2024-02-04T15:24:56;1.17;;;1.08;;
8478;SDS011;4276;49.354;6.804;2024-02-04T15:27:24;1.35;;;1.25;;
8478;SDS011;4276;49.354;6.804;2024-02-04T15:29:54;0.95;;;0.95;;